sensor_id;sensor_type;location;lat;lon;timestamp;temperature;humidity
22769;DHT22;13001;51.968;5.918;2024-03-02T00:02:08;9.80;91.00
22769;DHT22;13001;51.968;5.918;2024-03-02T00:04:35;9.80;91.00
22769;DHT22;13001;51.968;5.918;2024-03-02T00:07:03;9.80;91.00
22769;DHT22;13001;51.968;5.918;2024-03-02T00:09:31;9.80;91.00
22769;DHT22;13001;51.968;5.918;2024-03-02T00:12:00;9.80;91.00
22769;DHT22;13001;51.968;5.918;2024-03-02T00:14:30;9.80;90.90
22769;DHT22;13001;51.968;5.918;2024-03-02T00:16:59;9.90;90.80
22769;DHT22;13001;51.968;5.918;2024-03-02T00:19:27;9.90;90.50
22769;DHT22;13001;51.968;5.918;2024-03-02T00:21:56;9.90;90.90
22769;DHT22;13001;51.968;5.918;2024-03-02T00:24:34;9.80;90.90
22769;DHT22;13001;51.968;5.918;2024-03-02T00:27:03;9.80;91.00
22769;DHT22;13001;51.968;5.918;2024-03-02T00:29:31;9.80;91.00
22769;DHT22;13001;51.968;5.918;2024-03-02T00:31:59;9.80;91.00
22769;DHT22;13001;51.968;5.918;2024-03-02T00:34:28;9.80;91.00
22769;DHT22;13001;51.968;5.918;2024-03-02T00:36:58;9.80;91.00
22769;DHT22;13001;51.968;5.918;2024-03-02T00:39:26;9.90;91.00
22769;DHT22;13001;51.968;5.918;2024-03-02T00:41:54;9.90;91.00
22769;DHT22;13001;51.968;5.918;2024-03-02T00:44:23;9.90;91.00
22769;DHT22;13001;51.968;5.918;2024-03-02T00:46:53;9.90;90.90
22769;DHT22;13001;51.968;5.918;2024-03-02T00:49:22;10.00;91.00
22769;DHT22;13001;51.968;5.918;2024-03-02T00:51:52;10.00;90.90
22769;DHT22;13001;51.968;5.918;2024-03-02T00:54:27;10.00;90.90
22769;DHT22;13001;51.968;5.918;2024-03-02T00:56:55;10.00;90.90
22769;DHT22;13001;51.968;5.918;2024-03-02T00:59:24;10.00;90.90
22769;DHT22;13001;51.968;5.918;2024-03-02T01:01:51;10.00;90.90
22769;DHT22;13001;51.968;5.918;2024-03-02T01:04:19;10.00;91.30
22769;DHT22;13001;51.968;5.918;2024-03-02T01:06:46;10.00;90.90
22769;DHT22;13001;51.968;5.918;2024-03-02T01:09:14;10.00;90.90
22769;DHT22;13001;51.968;5.918;2024-03-02T01:11:44;10.00;91.00
22769;DHT22;13001;51.968;5.918;2024-03-02T01:14:11;10.00;91.00
22769;DHT22;13001;51.968;5.918;2024-03-02T01:16:39;10.00;91.00
22769;DHT22;13001;51.968;5.918;2024-03-02T01:19:06;10.00;91.30
22769;DHT22;13001;51.968;5.918;2024-03-02T01:21:35;10.00;90.90
22769;DHT22;13001;51.968;5.918;2024-03-02T01:24:03;10.00;91.00
22769;DHT22;13001;51.968;5.918;2024-03-02T01:26:31;10.10;91.00
22769;DHT22;13001;51.968;5.918;2024-03-02T01:28:58;10.10;91.00
22769;DHT22;13001;51.968;5.918;2024-03-02T01:31:26;10.10;91.00
22769;DHT22;13001;51.968;5.918;2024-03-02T01:33:53;10.20;91.10
22769;DHT22;13001;51.968;5.918;2024-03-02T01:36:21;10.20;91.30
22769;DHT22;13001;51.968;5.918;2024-03-02T01:38:48;10.20;91.30
22769;DHT22;13001;51.968;5.918;2024-03-02T01:41:16;10.20;91.30
22769;DHT22;13001;51.968;5.918;2024-03-02T01:43:44;10.30;91.40
22769;DHT22;13001;51.968;5.918;2024-03-02T01:46:11;10.30;91.50
22769;DHT22;13001;51.968;5.918;2024-03-02T01:48:39;10.30;91.60
22769;DHT22;13001;51.968;5.918;2024-03-02T01:51:06;10.30;91.70
22769;DHT22;13001;51.968;5.918;2024-03-02T01:53:35;10.30;91.90
22769;DHT22;13001;51.968;5.918;2024-03-02T01:56:04;10.30;92.00
22769;DHT22;13001;51.968;5.918;2024-03-02T01:58:31;10.30;92.10
22769;DHT22;13001;51.968;5.918;2024-03-02T02:00:59;10.30;92.10
22769;DHT22;13001;51.968;5.918;2024-03-02T02:03:26;10.30;92.10
22769;DHT22;13001;51.968;5.918;2024-03-02T02:05:54;10.20;92.20
22769;DHT22;13001;51.968;5.918;2024-03-02T02:08:21;10.20;92.30
22769;DHT22;13001;51.968;5.918;2024-03-02T02:10:49;10.20;92.40
22769;DHT22;13001;51.968;5.918;2024-03-02T02:13:16;10.20;92.50
22769;DHT22;13001;51.968;5.918;2024-03-02T02:15:44;10.10;92.60
22769;DHT22;13001;51.968;5.918;2024-03-02T02:18:11;10.10;92.60
22769;DHT22;13001;51.968;5.918;2024-03-02T02:20:39;10.10;92.70
22769;DHT22;13001;51.968;5.918;2024-03-02T02:23:06;10.10;92.80
22769;DHT22;13001;51.968;5.918;2024-03-02T02:25:35;10.10;92.80
22769;DHT22;13001;51.968;5.918;2024-03-02T02:28:03;10.10;92.90
22769;DHT22;13001;51.968;5.918;2024-03-02T02:30:32;10.00;92.90
22769;DHT22;13001;51.968;5.918;2024-03-02T02:32:59;10.00;93.00
22769;DHT22;13001;51.968;5.918;2024-03-02T02:35:27;10.00;93.30
22769;DHT22;13001;51.968;5.918;2024-03-02T02:37:56;10.00;92.90
22769;DHT22;13001;51.968;5.918;2024-03-02T02:40:25;10.00;92.80
22769;DHT22;13001;51.968;5.918;2024-03-02T02:42:52;10.00;92.80
22769;DHT22;13001;51.968;5.918;2024-03-02T02:45:20;10.00;92.80
22769;DHT22;13001;51.968;5.918;2024-03-02T02:47:48;10.00;92.70
22769;DHT22;13001;51.968;5.918;2024-03-02T02:50:15;10.00;92.70
22769;DHT22;13001;51.968;5.918;2024-03-02T02:52:43;10.00;92.60
22769;DHT22;13001;51.968;5.918;2024-03-02T02:55:12;10.00;92.60
22769;DHT22;13001;51.968;5.918;2024-03-02T02:57:42;10.00;92.50
22769;DHT22;13001;51.968;5.918;2024-03-02T03:00:14;10.00;92.40
22769;DHT22;13001;51.968;5.918;2024-03-02T03:02:43;10.00;92.50
22769;DHT22;13001;51.968;5.918;2024-03-02T03:05:13;10.00;92.40
22769;DHT22;13001;51.968;5.918;2024-03-02T03:07:41;10.00;92.50
22769;DHT22;13001;51.968;5.918;2024-03-02T03:10:09;10.00;92.60
22769;DHT22;13001;51.968;5.918;2024-03-02T03:12:37;10.00;92.60
22769;DHT22;13001;51.968;5.918;2024-03-02T03:15:04;9.90;92.70
22769;DHT22;13001;51.968;5.918;2024-03-02T03:17:33;9.90;92.80
22769;DHT22;13001;51.968;5.918;2024-03-02T03:20:01;9.90;93.00
22769;DHT22;13001;51.968;5.918;2024-03-02T03:22:31;9.90;93.00
22769;DHT22;13001;51.968;5.918;2024-03-02T03:24:58;9.80;93.10
22769;DHT22;13001;51.968;5.918;2024-03-02T03:27:26;9.80;93.20
22769;DHT22;13001;51.968;5.918;2024-03-02T03:29:54;9.80;93.10
22769;DHT22;13001;51.968;5.918;2024-03-02T03:32:21;9.80;93.20
22769;DHT22;13001;51.968;5.918;2024-03-02T03:34:49;9.80;93.30
22769;DHT22;13001;51.968;5.918;2024-03-02T03:37:16;9.80;93.40
22769;DHT22;13001;51.968;5.918;2024-03-02T03:39:46;9.70;93.40
22769;DHT22;13001;51.968;5.918;2024-03-02T03:42:13;9.70;93.50
22769;DHT22;13001;51.968;5.918;2024-03-02T03:44:41;9.80;93.60
22769;DHT22;13001;51.968;5.918;2024-03-02T03:47:08;9.70;93.60
22769;DHT22;13001;51.968;5.918;2024-03-02T03:49:36;9.70;93.80
22769;DHT22;13001;51.968;5.918;2024-03-02T03:52:03;9.60;93.90
22769;DHT22;13001;51.968;5.918;2024-03-02T03:54:31;9.60;94.10
22769;DHT22;13001;51.968;5.918;2024-03-02T03:56:58;9.60;94.20
22769;DHT22;13001;51.968;5.918;2024-03-02T03:59:26;9.60;94.30
22769;DHT22;13001;51.968;5.918;2024-03-02T04:01:53;9.60;94.40
22769;DHT22;13001;51.968;5.918;2024-03-02T04:04:21;9.50;94.50
22769;DHT22;13001;51.968;5.918;2024-03-02T04:06:48;9.50;94.50
22769;DHT22;13001;51.968;5.918;2024-03-02T04:09:16;9.50;94.60
22769;DHT22;13001;51.968;5.918;2024-03-02T04:11:43;9.50;94.60
22769;DHT22;13001;51.968;5.918;2024-03-02T04:14:11;9.50;94.70
22769;DHT22;13001;51.968;5.918;2024-03-02T04:16:39;9.40;94.90
22769;DHT22;13001;51.968;5.918;2024-03-02T04:19:06;9.40;95.00
22769;DHT22;13001;51.968;5.918;2024-03-02T04:21:34;9.40;95.00
22769;DHT22;13001;51.968;5.918;2024-03-02T04:24:01;9.40;95.00
22769;DHT22;13001;51.968;5.918;2024-03-02T04:26:29;9.40;95.30
22769;DHT22;13001;51.968;5.918;2024-03-02T04:28:57;9.40;95.00
22769;DHT22;13001;51.968;5.918;2024-03-02T04:31:25;9.30;95.20
22769;DHT22;13001;51.968;5.918;2024-03-02T04:33:52;9.30;95.00
22769;DHT22;13001;51.968;5.918;2024-03-02T04:36:20;9.30;95.20
22769;DHT22;13001;51.968;5.918;2024-03-02T04:38:48;9.30;95.10
22769;DHT22;13001;51.968;5.918;2024-03-02T04:41:15;9.30;95.20
22769;DHT22;13001;51.968;5.918;2024-03-02T04:43:43;9.30;95.10
22769;DHT22;13001;51.968;5.918;2024-03-02T04:46:11;9.30;95.10
22769;DHT22;13001;51.968;5.918;2024-03-02T04:48:38;9.30;95.10
22769;DHT22;13001;51.968;5.918;2024-03-02T04:51:06;9.30;95.10
22769;DHT22;13001;51.968;5.918;2024-03-02T04:53:33;9.20;95.10
22769;DHT22;13001;51.968;5.918;2024-03-02T04:56:01;9.20;95.20
22769;DHT22;13001;51.968;5.918;2024-03-02T04:58:48;9.20;95.30
22769;DHT22;13001;51.968;5.918;2024-03-02T05:01:15;9.10;95.30
22769;DHT22;13001;51.968;5.918;2024-03-02T05:03:44;9.10;95.50
22769;DHT22;13001;51.968;5.918;2024-03-02T05:06:11;9.00;95.50
22769;DHT22;13001;51.968;5.918;2024-03-02T05:08:39;8.90;95.70
22769;DHT22;13001;51.968;5.918;2024-03-02T05:11:06;8.90;95.80
22769;DHT22;13001;51.968;5.918;2024-03-02T05:13:51;8.80;95.90
22769;DHT22;13001;51.968;5.918;2024-03-02T05:16:19;8.80;96.00
22769;DHT22;13001;51.968;5.918;2024-03-02T05:18:47;8.80;96.00
22769;DHT22;13001;51.968;5.918;2024-03-02T05:21:14;8.80;96.40
22769;DHT22;13001;51.968;5.918;2024-03-02T05:23:42;8.70;96.10
22769;DHT22;13001;51.968;5.918;2024-03-02T05:26:11;8.70;96.20
22769;DHT22;13001;51.968;5.918;2024-03-02T05:28:41;8.70;96.20
22769;DHT22;13001;51.968;5.918;2024-03-02T05:31:12;8.70;96.20
22769;DHT22;13001;51.968;5.918;2024-03-02T05:33:41;8.70;96.30
22769;DHT22;13001;51.968;5.918;2024-03-02T05:36:08;8.70;96.20
22769;DHT22;13001;51.968;5.918;2024-03-02T05:38:36;8.70;96.20
22769;DHT22;13001;51.968;5.918;2024-03-02T05:41:03;8.70;96.60
22769;DHT22;13001;51.968;5.918;2024-03-02T05:43:31;8.70;96.10
22769;DHT22;13001;51.968;5.918;2024-03-02T05:45:58;8.70;96.10
22769;DHT22;13001;51.968;5.918;2024-03-02T05:48:26;8.70;96.00
22769;DHT22;13001;51.968;5.918;2024-03-02T05:50:53;8.60;95.90
22769;DHT22;13001;51.968;5.918;2024-03-02T05:53:21;8.60;95.80
22769;DHT22;13001;51.968;5.918;2024-03-02T05:55:49;8.60;95.70
22769;DHT22;13001;51.968;5.918;2024-03-02T05:58:18;8.60;95.70
22769;DHT22;13001;51.968;5.918;2024-03-02T06:00:51;8.60;95.70
22769;DHT22;13001;51.968;5.918;2024-03-02T06:03:21;8.60;95.70
22769;DHT22;13001;51.968;5.918;2024-03-02T06:05:49;8.50;95.70
22769;DHT22;13001;51.968;5.918;2024-03-02T06:08:17;8.60;95.70
22769;DHT22;13001;51.968;5.918;2024-03-02T06:10:46;8.50;95.60
22769;DHT22;13001;51.968;5.918;2024-03-02T06:13:13;8.50;95.60
22769;DHT22;13001;51.968;5.918;2024-03-02T06:15:41;8.50;95.60
22769;DHT22;13001;51.968;5.918;2024-03-02T06:18:09;8.50;95.60
22769;DHT22;13001;51.968;5.918;2024-03-02T06:20:36;8.40;95.60
22769;DHT22;13001;51.968;5.918;2024-03-02T06:23:04;8.40;95.60
22769;DHT22;13001;51.968;5.918;2024-03-02T06:25:32;8.40;95.70
22769;DHT22;13001;51.968;5.918;2024-03-02T06:28:00;8.40;95.80
22769;DHT22;13001;51.968;5.918;2024-03-02T06:30:28;8.30;96.00
22769;DHT22;13001;51.968;5.918;2024-03-02T06:32:57;8.40;95.90
22769;DHT22;13001;51.968;5.918;2024-03-02T06:35:24;8.40;95.90
22769;DHT22;13001;51.968;5.918;2024-03-02T06:37:52;8.40;96.00
22769;DHT22;13001;51.968;5.918;2024-03-02T06:40:20;8.60;96.00
22769;DHT22;13001;51.968;5.918;2024-03-02T06:42:49;8.80;95.60
22769;DHT22;13001;51.968;5.918;2024-03-02T06:45:17;8.90;95.30
22769;DHT22;13001;51.968;5.918;2024-03-02T06:47:44;9.10;95.20
22769;DHT22;13001;51.968;5.918;2024-03-02T06:50:12;9.10;95.00
22769;DHT22;13001;51.968;5.918;2024-03-02T06:52:39;9.20;94.80
22769;DHT22;13001;51.968;5.918;2024-03-02T06:55:07;9.50;94.90
22769;DHT22;13001;51.968;5.918;2024-03-02T06:57:34;10.30;94.40
22769;DHT22;13001;51.968;5.918;2024-03-02T07:00:02;11.10;93.30
22769;DHT22;13001;51.968;5.918;2024-03-02T07:02:31;11.90;91.90
22769;DHT22;13001;51.968;5.918;2024-03-02T07:04:59;12.40;90.70
22769;DHT22;13001;51.968;5.918;2024-03-02T07:07:26;12.90;90.70
22769;DHT22;13001;51.968;5.918;2024-03-02T07:09:54;14.10;90.10
22769;DHT22;13001;51.968;5.918;2024-03-02T07:12:21;15.40;87.30
22769;DHT22;13001;51.968;5.918;2024-03-02T07:14:49;16.70;83.60
22769;DHT22;13001;51.968;5.918;2024-03-02T07:17:33;17.10;80.10
22769;DHT22;13001;51.968;5.918;2024-03-02T07:20:03;16.50;75.60
22769;DHT22;13001;51.968;5.918;2024-03-02T07:22:30;15.60;76.00
22769;DHT22;13001;51.968;5.918;2024-03-02T07:24:58;14.80;77.40
22769;DHT22;13001;51.968;5.918;2024-03-02T07:27:25;14.10;79.20
22769;DHT22;13001;51.968;5.918;2024-03-02T07:29:53;13.60;80.80
22769;DHT22;13001;51.968;5.918;2024-03-02T07:32:23;13.60;81.90
22769;DHT22;13001;51.968;5.918;2024-03-02T07:34:51;14.30;83.30
22769;DHT22;13001;51.968;5.918;2024-03-02T07:37:18;16.20;81.00
22769;DHT22;13001;51.968;5.918;2024-03-02T07:39:47;17.80;76.20
22769;DHT22;13001;51.968;5.918;2024-03-02T07:42:14;18.60;72.50
22769;DHT22;13001;51.968;5.918;2024-03-02T07:44:44;19.30;70.40
22769;DHT22;13001;51.968;5.918;2024-03-02T07:47:12;20.20;68.50
22769;DHT22;13001;51.968;5.918;2024-03-02T07:49:39;21.50;66.10
22769;DHT22;13001;51.968;5.918;2024-03-02T07:52:07;22.90;59.30
22769;DHT22;13001;51.968;5.918;2024-03-02T07:54:34;24.20;57.80
22769;DHT22;13001;51.968;5.918;2024-03-02T07:57:03;25.40;55.20
22769;DHT22;13001;51.968;5.918;2024-03-02T07:59:30;26.60;53.50
22769;DHT22;13001;51.968;5.918;2024-03-02T08:01:58;27.70;51.30
22769;DHT22;13001;51.968;5.918;2024-03-02T08:04:27;28.80;49.60
22769;DHT22;13001;51.968;5.918;2024-03-02T08:06:54;30.20;47.90
22769;DHT22;13001;51.968;5.918;2024-03-02T08:09:23;31.00;45.40
22769;DHT22;13001;51.968;5.918;2024-03-02T08:11:50;31.50;44.40
22769;DHT22;13001;51.968;5.918;2024-03-02T08:14:19;32.00;43.00
22769;DHT22;13001;51.968;5.918;2024-03-02T08:16:47;32.10;42.00
22769;DHT22;13001;51.968;5.918;2024-03-02T08:19:14;32.10;41.40
22769;DHT22;13001;51.968;5.918;2024-03-02T08:21:43;32.00;40.80
22769;DHT22;13001;51.968;5.918;2024-03-02T08:24:10;31.90;40.30
22769;DHT22;13001;51.968;5.918;2024-03-02T08:26:38;32.10;40.00
22769;DHT22;13001;51.968;5.918;2024-03-02T08:29:06;32.00;39.60
22769;DHT22;13001;51.968;5.918;2024-03-02T08:31:33;31.60;40.00
22769;DHT22;13001;51.968;5.918;2024-03-02T08:34:01;31.00;39.40
22769;DHT22;13001;51.968;5.918;2024-03-02T08:36:28;30.50;39.80
22769;DHT22;13001;51.968;5.918;2024-03-02T08:38:56;30.50;39.90
22769;DHT22;13001;51.968;5.918;2024-03-02T08:41:23;30.30;39.60
22769;DHT22;13001;51.968;5.918;2024-03-02T08:43:51;30.40;40.00
22769;DHT22;13001;51.968;5.918;2024-03-02T08:46:19;30.60;39.20
22769;DHT22;13001;51.968;5.918;2024-03-02T08:48:46;30.70;38.70
22769;DHT22;13001;51.968;5.918;2024-03-02T08:51:15;30.70;38.60
22769;DHT22;13001;51.968;5.918;2024-03-02T08:53:42;30.60;38.60
22769;DHT22;13001;51.968;5.918;2024-03-02T08:56:10;30.70;38.60
22769;DHT22;13001;51.968;5.918;2024-03-02T08:58:39;30.80;38.10
22769;DHT22;13001;51.968;5.918;2024-03-02T09:01:07;30.60;38.30
22769;DHT22;13001;51.968;5.918;2024-03-02T09:03:34;31.00;38.20
22769;DHT22;13001;51.968;5.918;2024-03-02T09:06:02;31.50;37.60
22769;DHT22;13001;51.968;5.918;2024-03-02T09:08:30;31.70;37.00
22769;DHT22;13001;51.968;5.918;2024-03-02T09:10:58;31.90;36.70
22769;DHT22;13001;51.968;5.918;2024-03-02T09:13:26;32.00;36.60
22769;DHT22;13001;51.968;5.918;2024-03-02T09:15:54;32.30;36.60
22769;DHT22;13001;51.968;5.918;2024-03-02T09:18:21;32.80;36.10
22769;DHT22;13001;51.968;5.918;2024-03-02T09:20:49;32.90;35.30
22769;DHT22;13001;51.968;5.918;2024-03-02T09:23:16;32.30;35.10
22769;DHT22;13001;51.968;5.918;2024-03-02T09:25:44;31.00;35.50
22769;DHT22;13001;51.968;5.918;2024-03-02T09:28:13;29.00;36.60
22769;DHT22;13001;51.968;5.918;2024-03-02T09:30:40;27.00;39.10
22769;DHT22;13001;51.968;5.918;2024-03-02T09:33:08;25.10;41.90
22769;DHT22;13001;51.968;5.918;2024-03-02T09:35:35;23.60;44.80
22769;DHT22;13001;51.968;5.918;2024-03-02T09:38:03;22.50;46.50
22769;DHT22;13001;51.968;5.918;2024-03-02T09:40:31;21.50;48.30
22769;DHT22;13001;51.968;5.918;2024-03-02T09:42:59;20.80;49.80
22769;DHT22;13001;51.968;5.918;2024-03-02T09:45:27;20.20;51.00
22769;DHT22;13001;51.968;5.918;2024-03-02T09:47:55;19.80;51.90
22769;DHT22;13001;51.968;5.918;2024-03-02T09:50:22;19.40;52.80
22769;DHT22;13001;51.968;5.918;2024-03-02T09:52:50;19.10;53.70
22769;DHT22;13001;51.968;5.918;2024-03-02T09:55:19;18.80;54.10
22769;DHT22;13001;51.968;5.918;2024-03-02T09:57:46;18.50;54.50
22769;DHT22;13001;51.968;5.918;2024-03-02T10:00:15;18.20;55.10
22769;DHT22;13001;51.968;5.918;2024-03-02T10:02:43;17.90;55.60
22769;DHT22;13001;51.968;5.918;2024-03-02T10:05:10;17.50;56.40
22769;DHT22;13001;51.968;5.918;2024-03-02T10:07:41;17.40;57.20
22769;DHT22;13001;51.968;5.918;2024-03-02T10:10:15;17.30;57.60
22769;DHT22;13001;51.968;5.918;2024-03-02T10:12:43;17.20;58.10
22769;DHT22;13001;51.968;5.918;2024-03-02T10:15:10;17.30;58.70
22769;DHT22;13001;51.968;5.918;2024-03-02T10:17:39;17.40;58.90
22769;DHT22;13001;51.968;5.918;2024-03-02T10:20:24;17.40;58.90
22769;DHT22;13001;51.968;5.918;2024-03-02T10:22:52;17.50;58.90
22769;DHT22;13001;51.968;5.918;2024-03-02T10:25:30;17.60;59.00
22769;DHT22;13001;51.968;5.918;2024-03-02T10:28:01;17.70;58.70
22769;DHT22;13001;51.968;5.918;2024-03-02T10:30:30;17.70;58.90
22769;DHT22;13001;51.968;5.918;2024-03-02T10:32:58;17.70;58.80
22769;DHT22;13001;51.968;5.918;2024-03-02T10:35:26;17.70;58.80
22769;DHT22;13001;51.968;5.918;2024-03-02T10:37:54;17.50;58.30
22769;DHT22;13001;51.968;5.918;2024-03-02T10:40:22;17.30;58.30
22769;DHT22;13001;51.968;5.918;2024-03-02T10:42:50;17.10;59.00
22769;DHT22;13001;51.968;5.918;2024-03-02T10:45:20;17.10;59.70
22769;DHT22;13001;51.968;5.918;2024-03-02T10:47:50;17.00;59.40
22769;DHT22;13001;51.968;5.918;2024-03-02T10:50:18;17.00;59.40
22769;DHT22;13001;51.968;5.918;2024-03-02T10:52:45;17.00;59.50
22769;DHT22;13001;51.968;5.918;2024-03-02T10:55:13;16.90;59.10
22769;DHT22;13001;51.968;5.918;2024-03-02T10:57:54;16.80;59.50
22769;DHT22;13001;51.968;5.918;2024-03-02T11:00:25;16.70;59.20
22769;DHT22;13001;51.968;5.918;2024-03-02T11:02:58;16.50;59.30
22769;DHT22;13001;51.968;5.918;2024-03-02T11:05:36;16.40;59.40
22769;DHT22;13001;51.968;5.918;2024-03-02T11:08:06;16.40;59.70
22769;DHT22;13001;51.968;5.918;2024-03-02T11:10:50;16.40;60.00
22769;DHT22;13001;51.968;5.918;2024-03-02T11:13:25;16.70;59.80
22769;DHT22;13001;51.968;5.918;2024-03-02T11:15:59;17.00;59.30
22769;DHT22;13001;51.968;5.918;2024-03-02T11:18:22;17.10;58.50
22769;DHT22;13001;51.968;5.918;2024-03-02T11:20:49;17.00;58.40
22769;DHT22;13001;51.968;5.918;2024-03-02T11:23:17;16.80;58.70
22769;DHT22;13001;51.968;5.918;2024-03-02T11:25:45;16.80;59.20
22769;DHT22;13001;51.968;5.918;2024-03-02T11:28:15;16.90;59.30
22769;DHT22;13001;51.968;5.918;2024-03-02T11:33:22;17.30;58.80
22769;DHT22;13001;51.968;5.918;2024-03-02T11:35:47;17.30;58.20
22769;DHT22;13001;51.968;5.918;2024-03-02T11:38:15;17.20;58.20
22769;DHT22;13001;51.968;5.918;2024-03-02T11:40:42;17.10;58.20
22769;DHT22;13001;51.968;5.918;2024-03-02T11:43:11;17.10;58.40
22769;DHT22;13001;51.968;5.918;2024-03-02T11:45:41;16.90;58.40
22769;DHT22;13001;51.968;5.918;2024-03-02T11:48:13;16.80;59.40
22769;DHT22;13001;51.968;5.918;2024-03-02T11:50:49;16.60;59.50
22769;DHT22;13001;51.968;5.918;2024-03-02T11:53:16;16.70;60.40
22769;DHT22;13001;51.968;5.918;2024-03-02T11:55:45;16.90;60.90
22769;DHT22;13001;51.968;5.918;2024-03-02T11:58:16;17.10;59.90
22769;DHT22;13001;51.968;5.918;2024-03-02T12:00:46;17.10;59.40
22769;DHT22;13001;51.968;5.918;2024-03-02T12:03:14;17.20;59.60
22769;DHT22;13001;51.968;5.918;2024-03-02T12:05:42;17.20;59.20
22769;DHT22;13001;51.968;5.918;2024-03-02T12:08:11;17.20;58.70
22769;DHT22;13001;51.968;5.918;2024-03-02T12:10:40;17.20;58.80
22769;DHT22;13001;51.968;5.918;2024-03-02T12:13:07;17.20;58.90
22769;DHT22;13001;51.968;5.918;2024-03-02T12:15:38;17.00;58.50
22769;DHT22;13001;51.968;5.918;2024-03-02T12:18:08;16.80;58.60
22769;DHT22;13001;51.968;5.918;2024-03-02T12:20:36;16.50;58.90
22769;DHT22;13001;51.968;5.918;2024-03-02T12:23:07;16.30;59.40
22769;DHT22;13001;51.968;5.918;2024-03-02T12:25:34;16.20;59.30
22769;DHT22;13001;51.968;5.918;2024-03-02T12:28:02;16.10;60.50
22769;DHT22;13001;51.968;5.918;2024-03-02T12:30:31;16.30;60.10
22769;DHT22;13001;51.968;5.918;2024-03-02T12:33:00;16.40;59.90
22769;DHT22;13001;51.968;5.918;2024-03-02T12:35:27;16.50;59.40
22769;DHT22;13001;51.968;5.918;2024-03-02T12:37:56;16.40;58.90
22769;DHT22;13001;51.968;5.918;2024-03-02T12:40:25;16.30;58.60
22769;DHT22;13001;51.968;5.918;2024-03-02T12:42:52;16.10;58.80
22769;DHT22;13001;51.968;5.918;2024-03-02T12:45:20;16.00;59.20
22769;DHT22;13001;51.968;5.918;2024-03-02T12:47:51;16.00;59.10
22769;DHT22;13001;51.968;5.918;2024-03-02T12:50:18;15.80;59.20
22769;DHT22;13001;51.968;5.918;2024-03-02T12:52:52;15.70;59.40
22769;DHT22;13001;51.968;5.918;2024-03-02T12:55:24;15.80;59.50
22769;DHT22;13001;51.968;5.918;2024-03-02T12:57:53;15.90;60.00
22769;DHT22;13001;51.968;5.918;2024-03-02T13:00:21;16.00;59.10
22769;DHT22;13001;51.968;5.918;2024-03-02T13:02:50;16.10;58.80
22769;DHT22;13001;51.968;5.918;2024-03-02T13:05:18;16.20;58.60
22769;DHT22;13001;51.968;5.918;2024-03-02T13:07:47;16.30;58.40
22769;DHT22;13001;51.968;5.918;2024-03-02T13:10:16;16.40;58.40
22769;DHT22;13001;51.968;5.918;2024-03-02T13:12:44;16.50;59.00
22769;DHT22;13001;51.968;5.918;2024-03-02T13:15:12;16.40;59.60
22769;DHT22;13001;51.968;5.918;2024-03-02T13:17:39;16.30;60.10
22769;DHT22;13001;51.968;5.918;2024-03-02T13:20:07;16.30;60.80
22769;DHT22;13001;51.968;5.918;2024-03-02T13:22:37;16.10;61.10
22769;DHT22;13001;51.968;5.918;2024-03-02T13:25:05;16.00;61.80
22769;DHT22;13001;51.968;5.918;2024-03-02T13:27:34;15.90;62.40
22769;DHT22;13001;51.968;5.918;2024-03-02T13:30:05;15.90;63.00
22769;DHT22;13001;51.968;5.918;2024-03-02T13:32:34;15.90;63.00
22769;DHT22;13001;51.968;5.918;2024-03-02T13:35:02;16.10;63.30
22769;DHT22;13001;51.968;5.918;2024-03-02T13:37:29;16.10;63.20
22769;DHT22;13001;51.968;5.918;2024-03-02T13:39:57;16.10;63.10
22769;DHT22;13001;51.968;5.918;2024-03-02T13:42:25;16.00;62.80
22769;DHT22;13001;51.968;5.918;2024-03-02T13:44:53;16.00;63.00
22769;DHT22;13001;51.968;5.918;2024-03-02T13:47:21;16.00;63.10
22769;DHT22;13001;51.968;5.918;2024-03-02T13:49:49;16.10;63.10
22769;DHT22;13001;51.968;5.918;2024-03-02T13:52:16;16.00;62.80
22769;DHT22;13001;51.968;5.918;2024-03-02T13:54:46;15.90;62.90
22769;DHT22;13001;51.968;5.918;2024-03-02T13:57:14;15.70;63.30
22769;DHT22;13001;51.968;5.918;2024-03-02T13:59:42;15.60;63.80
22769;DHT22;13001;51.968;5.918;2024-03-02T14:02:10;15.50;64.30
22769;DHT22;13001;51.968;5.918;2024-03-02T14:04:38;15.40;64.50
22769;DHT22;13001;51.968;5.918;2024-03-02T14:07:06;15.30;64.50
22769;DHT22;13001;51.968;5.918;2024-03-02T14:09:34;15.20;64.50
22769;DHT22;13001;51.968;5.918;2024-03-02T14:12:02;15.10;64.80
22769;DHT22;13001;51.968;5.918;2024-03-02T14:14:30;15.00;65.10
22769;DHT22;13001;51.968;5.918;2024-03-02T14:16:57;14.90;65.50
22769;DHT22;13001;51.968;5.918;2024-03-02T14:19:30;14.90;66.00
22769;DHT22;13001;51.968;5.918;2024-03-02T14:21:57;14.80;65.90
22769;DHT22;13001;51.968;5.918;2024-03-02T14:24:25;14.80;65.60
22769;DHT22;13001;51.968;5.918;2024-03-02T14:26:54;14.80;65.70
22769;DHT22;13001;51.968;5.918;2024-03-02T14:29:26;14.80;65.90
22769;DHT22;13001;51.968;5.918;2024-03-02T14:31:54;14.90;66.00
22769;DHT22;13001;51.968;5.918;2024-03-02T14:34:21;14.90;66.40
22769;DHT22;13001;51.968;5.918;2024-03-02T14:36:49;14.90;65.30
22769;DHT22;13001;51.968;5.918;2024-03-02T14:39:16;15.00;65.40
22769;DHT22;13001;51.968;5.918;2024-03-02T14:41:46;15.10;65.40
22769;DHT22;13001;51.968;5.918;2024-03-02T14:44:13;15.20;65.40
22769;DHT22;13001;51.968;5.918;2024-03-02T14:46:42;15.30;65.30
22769;DHT22;13001;51.968;5.918;2024-03-02T14:49:09;15.30;65.20
22769;DHT22;13001;51.968;5.918;2024-03-02T14:51:38;15.30;65.50
22769;DHT22;13001;51.968;5.918;2024-03-02T14:54:07;15.20;65.90
22769;DHT22;13001;51.968;5.918;2024-03-02T14:56:35;15.10;66.30
22769;DHT22;13001;51.968;5.918;2024-03-02T14:59:03;15.00;66.70
22769;DHT22;13001;51.968;5.918;2024-03-02T15:01:30;15.00;66.90
22769;DHT22;13001;51.968;5.918;2024-03-02T15:03:58;15.00;67.20
22769;DHT22;13001;51.968;5.918;2024-03-02T15:06:26;15.00;67.40
22769;DHT22;13001;51.968;5.918;2024-03-02T15:08:53;15.00;67.70
22769;DHT22;13001;51.968;5.918;2024-03-02T15:11:23;14.90;68.20
22769;DHT22;13001;51.968;5.918;2024-03-02T15:13:52;14.80;68.60
22769;DHT22;13001;51.968;5.918;2024-03-02T15:16:19;14.70;69.10
22769;DHT22;13001;51.968;5.918;2024-03-02T15:18:47;14.70;69.40
22769;DHT22;13001;51.968;5.918;2024-03-02T15:21:14;14.70;69.70
22769;DHT22;13001;51.968;5.918;2024-03-02T15:23:42;14.60;69.70
22769;DHT22;13001;51.968;5.918;2024-03-02T15:26:10;14.60;70.10
22769;DHT22;13001;51.968;5.918;2024-03-02T15:28:38;14.50;70.30
22769;DHT22;13001;51.968;5.918;2024-03-02T15:31:05;14.60;70.50
22769;DHT22;13001;51.968;5.918;2024-03-02T15:33:33;14.60;70.70
22769;DHT22;13001;51.968;5.918;2024-03-02T15:36:00;14.60;71.00
22769;DHT22;13001;51.968;5.918;2024-03-02T15:38:28;14.60;71.50
22769;DHT22;13001;51.968;5.918;2024-03-02T15:40:55;14.50;71.20
22769;DHT22;13001;51.968;5.918;2024-03-02T15:43:23;14.40;71.40
22769;DHT22;13001;51.968;5.918;2024-03-02T15:45:53;14.40;71.80